sensor_id;sensor_type;location;lat;lon;timestamp;P1;durP1;ratioP1;P2;durP2;ratioP2
69358;SDS011;56520;49.066;8.660;2023-06-22T00:01:14;5.88;;;1.98;;
69358;SDS011;56520;49.066;8.660;2023-06-22T00:03:39;6.25;;;2.38;;
69358;SDS011;56520;49.066;8.660;2023-06-22T00:06:05;7.18;;;2.60;;
69358;SDS011;56520;49.066;8.660;2023-06-22T00:08:30;5.53;;;2.10;;
69358;SDS011;56520;49.066;8.660;2023-06-22T00:10:59;6.07;;;2.40;;
69358;SDS011;56520;49.066;8.660;2023-06-22T00:13:24;5.88;;;2.58;;
69358;SDS011;56520;49.066;8.660;2023-06-22T00:15:49;5.68;;;1.90;;
69358;SDS011;56520;49.066;8.660;2023-06-22T00:18:15;5.93;;;1.98;;
69358;SDS011;56520;49.066;8.660;2023-06-22T00:20:41;6.15;;;2.42;;
69358;SDS011;56520;49.066;8.660;2023-06-22T00:23:07;5.25;;;1.90;;
69358;SDS011;56520;49.066;8.660;2023-06-22T00:25:36;5.65;;;2.03;;
69358;SDS011;56520;49.066;8.660;2023-06-22T00:28:07;6.13;;;2.28;;
69358;SDS011;56520;49.066;8.660;2023-06-22T00:30:33;5.95;;;2.00;;
69358;SDS011;56520;49.066;8.660;2023-06-22T00:32:59;5.72;;;2.50;;
69358;SDS011;56520;49.066;8.660;2023-06-22T00:35:26;4.90;;;1.58;;
69358;SDS011;56520;49.066;8.660;2023-06-22T00:37:59;6.93;;;2.60;;
69358;SDS011;56520;49.066;8.660;2023-06-22T00:40:30;7.75;;;2.80;;
69358;SDS011;56520;49.066;8.660;2023-06-22T00:42:56;9.90;;;2.70;;
69358;SDS011;56520;49.066;8.660;2023-06-22T00:45:25;9.35;;;3.05;;
69358;SDS011;56520;49.066;8.660;2023-06-22T00:47:55;8.15;;;2.95;;
69358;SDS011;56520;49.066;8.660;2023-06-22T00:50:23;7.13;;;2.72;;
69358;SDS011;56520;49.066;8.660;2023-06-22T00:52:51;8.20;;;2.55;;
69358;SDS011;56520;49.066;8.660;2023-06-22T00:55:18;8.23;;;2.90;;
69358;SDS011;56520;49.066;8.660;2023-06-22T00:57:45;7.32;;;2.63;;
69358;SDS011;56520;49.066;8.660;2023-06-22T01:00:12;8.75;;;2.90;;
69358;SDS011;56520;49.066;8.660;2023-06-22T01:02:38;6.25;;;2.72;;
69358;SDS011;56520;49.066;8.660;2023-06-22T01:05:06;8.07;;;2.40;;
69358;SDS011;56520;49.066;8.660;2023-06-22T01:07:35;8.02;;;2.78;;
69358;SDS011;56520;49.066;8.660;2023-06-22T01:10:25;6.32;;;2.63;;
69358;SDS011;56520;49.066;8.660;2023-06-22T01:18:29;8.20;;;3.13;;
69358;SDS011;56520;49.066;8.660;2023-06-22T01:20:56;6.88;;;2.70;;
69358;SDS011;56520;49.066;8.660;2023-06-22T01:29:05;6.35;;;2.35;;
69358;SDS011;56520;49.066;8.660;2023-06-22T01:31:32;6.40;;;2.40;;
69358;SDS011;56520;49.066;8.660;2023-06-22T01:34:02;5.80;;;2.13;;
69358;SDS011;56520;49.066;8.660;2023-06-22T01:36:30;6.63;;;2.75;;
69358;SDS011;56520;49.066;8.660;2023-06-22T01:38:57;5.40;;;2.17;;
69358;SDS011;56520;49.066;8.660;2023-06-22T01:41:27;6.10;;;2.28;;
69358;SDS011;56520;49.066;8.660;2023-06-22T01:43:54;5.70;;;2.25;;
69358;SDS011;56520;49.066;8.660;2023-06-22T01:46:20;7.05;;;2.95;;
69358;SDS011;56520;49.066;8.660;2023-06-22T01:48:46;6.05;;;2.70;;
69358;SDS011;56520;49.066;8.660;2023-06-22T01:51:12;6.30;;;2.50;;
69358;SDS011;56520;49.066;8.660;2023-06-22T01:53:38;6.05;;;2.45;;
69358;SDS011;56520;49.066;8.660;2023-06-22T01:56:04;6.63;;;2.50;;
69358;SDS011;56520;49.066;8.660;2023-06-22T01:58:30;7.13;;;2.75;;
69358;SDS011;56520;49.066;8.660;2023-06-22T02:00:58;5.90;;;2.15;;
69358;SDS011;56520;49.066;8.660;2023-06-22T02:03:32;6.20;;;2.30;;
69358;SDS011;56520;49.066;8.660;2023-06-22T02:06:05;5.40;;;2.15;;
69358;SDS011;56520;49.066;8.660;2023-06-22T02:08:44;5.50;;;1.80;;
69358;SDS011;56520;49.066;8.660;2023-06-22T02:11:13;6.60;;;2.78;;
69358;SDS011;56520;49.066;8.660;2023-06-22T02:13:40;6.60;;;2.75;;
69358;SDS011;56520;49.066;8.660;2023-06-22T02:16:08;6.50;;;2.45;;
69358;SDS011;56520;49.066;8.660;2023-06-22T02:18:37;6.68;;;2.72;;
69358;SDS011;56520;49.066;8.660;2023-06-22T02:21:02;6.13;;;2.28;;
69358;SDS011;56520;49.066;8.660;2023-06-22T02:23:28;6.53;;;2.70;;
69358;SDS011;56520;49.066;8.660;2023-06-22T02:25:53;6.65;;;2.30;;
69358;SDS011;56520;49.066;8.660;2023-06-22T02:28:19;5.85;;;2.55;;
69358;SDS011;56520;49.066;8.660;2023-06-22T02:30:44;6.05;;;2.40;;
69358;SDS011;56520;49.066;8.660;2023-06-22T02:33:10;6.28;;;2.15;;
69358;SDS011;56520;49.066;8.660;2023-06-22T02:35:35;5.88;;;2.50;;
69358;SDS011;56520;49.066;8.660;2023-06-22T02:38:10;6.63;;;2.55;;
69358;SDS011;56520;49.066;8.660;2023-06-22T02:40:35;6.10;;;2.70;;
69358;SDS011;56520;49.066;8.660;2023-06-22T02:43:01;6.43;;;2.70;;
69358;SDS011;56520;49.066;8.660;2023-06-22T02:45:27;6.60;;;2.70;;
69358;SDS011;56520;49.066;8.660;2023-06-22T02:47:53;8.38;;;2.60;;
69358;SDS011;56520;49.066;8.660;2023-06-22T02:50:19;6.25;;;2.55;;
69358;SDS011;56520;49.066;8.660;2023-06-22T02:52:45;7.22;;;2.30;;
69358;SDS011;56520;49.066;8.660;2023-06-22T02:55:10;6.88;;;2.17;;
69358;SDS011;56520;49.066;8.660;2023-06-22T02:57:35;6.95;;;2.58;;
69358;SDS011;56520;49.066;8.660;2023-06-22T03:00:02;6.18;;;2.40;;
69358;SDS011;56520;49.066;8.660;2023-06-22T03:02:38;5.68;;;2.17;;
69358;SDS011;56520;49.066;8.660;2023-06-22T03:05:04;6.22;;;2.10;;
69358;SDS011;56520;49.066;8.660;2023-06-22T03:07:31;5.35;;;2.10;;
69358;SDS011;56520;49.066;8.660;2023-06-22T03:09:56;6.25;;;2.45;;
69358;SDS011;56520;49.066;8.660;2023-06-22T03:12:22;5.40;;;2.10;;
69358;SDS011;56520;49.066;8.660;2023-06-22T03:14:52;5.90;;;2.42;;
69358;SDS011;56520;49.066;8.660;2023-06-22T03:17:18;6.78;;;2.90;;
69358;SDS011;56520;49.066;8.660;2023-06-22T03:19:43;7.97;;;3.60;;
69358;SDS011;56520;49.066;8.660;2023-06-22T03:22:08;7.28;;;2.50;;
69358;SDS011;56520;49.066;8.660;2023-06-22T03:24:34;5.82;;;2.55;;
69358;SDS011;56520;49.066;8.660;2023-06-22T03:26:59;6.15;;;2.50;;
69358;SDS011;56520;49.066;8.660;2023-06-22T03:29:25;6.70;;;2.50;;
69358;SDS011;56520;49.066;8.660;2023-06-22T03:31:50;5.82;;;2.40;;
69358;SDS011;56520;49.066;8.660;2023-06-22T03:34:16;8.02;;;2.85;;
69358;SDS011;56520;49.066;8.660;2023-06-22T03:36:41;7.43;;;2.72;;
69358;SDS011;56520;49.066;8.660;2023-06-22T03:39:07;6.78;;;2.65;;
69358;SDS011;56520;49.066;8.660;2023-06-22T03:41:33;6.15;;;2.42;;
69358;SDS011;56520;49.066;8.660;2023-06-22T03:43:58;7.35;;;2.50;;
69358;SDS011;56520;49.066;8.660;2023-06-22T03:46:23;6.03;;;2.10;;
69358;SDS011;56520;49.066;8.660;2023-06-22T03:48:49;8.43;;;3.10;;
69358;SDS011;56520;49.066;8.660;2023-06-22T03:51:14;5.85;;;2.40;;
69358;SDS011;56520;49.066;8.660;2023-06-22T03:53:42;6.35;;;2.50;;
69358;SDS011;56520;49.066;8.660;2023-06-22T03:56:08;8.00;;;3.22;;
69358;SDS011;56520;49.066;8.660;2023-06-22T03:58:33;8.15;;;3.17;;
69358;SDS011;56520;49.066;8.660;2023-06-22T04:01:00;7.47;;;2.88;;
69358;SDS011;56520;49.066;8.660;2023-06-22T04:03:25;6.68;;;2.90;;
69358;SDS011;56520;49.066;8.660;2023-06-22T04:05:51;7.40;;;2.90;;
69358;SDS011;56520;49.066;8.660;2023-06-22T04:08:20;6.93;;;2.85;;
69358;SDS011;56520;49.066;8.660;2023-06-22T04:10:45;9.80;;;3.05;;
69358;SDS011;56520;49.066;8.660;2023-06-22T04:13:11;7.05;;;3.88;;
69358;SDS011;56520;49.066;8.660;2023-06-22T04:15:36;7.43;;;3.13;;
69358;SDS011;56520;49.066;8.660;2023-06-22T04:18:01;7.38;;;3.00;;
69358;SDS011;56520;49.066;8.660;2023-06-22T04:20:27;7.68;;;3.35;;
69358;SDS011;56520;49.066;8.660;2023-06-22T04:22:56;9.90;;;4.00;;
69358;SDS011;56520;49.066;8.660;2023-06-22T04:25:21;7.35;;;2.95;;
69358;SDS011;56520;49.066;8.660;2023-06-22T04:27:47;8.75;;;3.60;;
69358;SDS011;56520;49.066;8.660;2023-06-22T04:30:13;8.38;;;3.35;;
69358;SDS011;56520;49.066;8.660;2023-06-22T04:32:41;9.05;;;3.50;;
69358;SDS011;56520;49.066;8.660;2023-06-22T04:35:09;9.02;;;3.70;;
69358;SDS011;56520;49.066;8.660;2023-06-22T04:37:36;8.48;;;3.60;;
69358;SDS011;56520;49.066;8.660;2023-06-22T04:40:01;7.88;;;3.30;;
69358;SDS011;56520;49.066;8.660;2023-06-22T04:42:29;6.57;;;2.78;;
69358;SDS011;56520;49.066;8.660;2023-06-22T04:44:55;7.95;;;2.83;;
69358;SDS011;56520;49.066;8.660;2023-06-22T04:47:20;7.90;;;3.20;;
69358;SDS011;56520;49.066;8.660;2023-06-22T04:49:46;7.00;;;3.00;;
69358;SDS011;56520;49.066;8.660;2023-06-22T04:52:12;6.65;;;2.83;;
69358;SDS011;56520;49.066;8.660;2023-06-22T04:54:39;7.47;;;3.05;;
69358;SDS011;56520;49.066;8.660;2023-06-22T04:57:12;8.18;;;3.53;;
69358;SDS011;56520;49.066;8.660;2023-06-22T04:59:38;9.90;;;3.15;;
69358;SDS011;56520;49.066;8.660;2023-06-22T05:02:07;9.43;;;4.15;;
69358;SDS011;56520;49.066;8.660;2023-06-22T05:04:33;9.20;;;3.63;;
69358;SDS011;56520;49.066;8.660;2023-06-22T05:07:00;7.07;;;2.97;;
69358;SDS011;56520;49.066;8.660;2023-06-22T05:09:27;7.82;;;3.55;;
69358;SDS011;56520;49.066;8.660;2023-06-22T05:11:53;6.68;;;2.92;;
69358;SDS011;56520;49.066;8.660;2023-06-22T05:14:19;7.50;;;3.60;;
69358;SDS011;56520;49.066;8.660;2023-06-22T05:16:45;8.23;;;3.30;;
69358;SDS011;56520;49.066;8.660;2023-06-22T05:19:11;9.65;;;4.20;;
69358;SDS011;56520;49.066;8.660;2023-06-22T05:21:39;7.38;;;3.53;;
69358;SDS011;56520;49.066;8.660;2023-06-22T05:24:05;7.97;;;3.85;;
69358;SDS011;56520;49.066;8.660;2023-06-22T05:26:30;10.82;;;4.40;;
69358;SDS011;56520;49.066;8.660;2023-06-22T05:28:58;10.70;;;3.88;;
69358;SDS011;56520;49.066;8.660;2023-06-22T05:31:24;9.85;;;3.97;;
69358;SDS011;56520;49.066;8.660;2023-06-22T05:33:51;8.70;;;4.03;;
69358;SDS011;56520;49.066;8.660;2023-06-22T05:36:17;7.53;;;3.03;;
69358;SDS011;56520;49.066;8.660;2023-06-22T05:38:44;8.32;;;3.30;;
69358;SDS011;56520;49.066;8.660;2023-06-22T05:41:10;8.18;;;3.50;;
69358;SDS011;56520;49.066;8.660;2023-06-22T05:43:35;7.43;;;3.13;;
69358;SDS011;56520;49.066;8.660;2023-06-22T05:46:01;7.50;;;3.40;;
69358;SDS011;56520;49.066;8.660;2023-06-22T05:48:27;8.23;;;3.40;;
69358;SDS011;56520;49.066;8.660;2023-06-22T05:50:55;8.75;;;3.75;;
69358;SDS011;56520;49.066;8.660;2023-06-22T05:53:21;8.48;;;3.42;;
69358;SDS011;56520;49.066;8.660;2023-06-22T05:55:47;6.68;;;2.47;;
69358;SDS011;56520;49.066;8.660;2023-06-22T05:58:12;10.13;;;4.57;;
69358;SDS011;56520;49.066;8.660;2023-06-22T06:00:41;8.32;;;3.20;;
69358;SDS011;56520;49.066;8.660;2023-06-22T06:03:08;8.60;;;3.35;;
69358;SDS011;56520;49.066;8.660;2023-06-22T06:05:34;7.25;;;3.10;;
69358;SDS011;56520;49.066;8.660;2023-06-22T06:08:00;10.95;;;3.70;;
69358;SDS011;56520;49.066;8.660;2023-06-22T06:10:27;7.78;;;4.00;;
69358;SDS011;56520;49.066;8.660;2023-06-22T06:12:56;7.60;;;3.65;;
69358;SDS011;56520;49.066;8.660;2023-06-22T06:15:21;7.22;;;3.03;;
69358;SDS011;56520;49.066;8.660;2023-06-22T06:17:51;6.82;;;3.03;;
69358;SDS011;56520;49.066;8.660;2023-06-22T06:20:21;6.47;;;2.90;;
69358;SDS011;56520;49.066;8.660;2023-06-22T06:22:48;7.35;;;3.15;;
69358;SDS011;56520;49.066;8.660;2023-06-22T06:25:14;8.30;;;3.03;;
69358;SDS011;56520;49.066;8.660;2023-06-22T06:27:45;9.07;;;3.72;;
69358;SDS011;56520;49.066;8.660;2023-06-22T06:30:11;8.77;;;4.03;;
69358;SDS011;56520;49.066;8.660;2023-06-22T06:32:38;9.02;;;3.70;;
69358;SDS011;56520;49.066;8.660;2023-06-22T06:35:07;10.18;;;3.80;;
69358;SDS011;56520;49.066;8.660;2023-06-22T06:37:38;8.27;;;3.83;;
69358;SDS011;56520;49.066;8.660;2023-06-22T06:40:08;7.85;;;3.53;;
69358;SDS011;56520;49.066;8.660;2023-06-22T06:42:38;9.95;;;3.63;;
69358;SDS011;56520;49.066;8.660;2023-06-22T06:45:07;8.35;;;3.00;;
69358;SDS011;56520;49.066;8.660;2023-06-22T06:47:33;6.57;;;3.17;;
69358;SDS011;56520;49.066;8.660;2023-06-22T06:49:58;9.60;;;3.22;;
69358;SDS011;56520;49.066;8.660;2023-06-22T06:52:24;7.55;;;3.60;;
69358;SDS011;56520;49.066;8.660;2023-06-22T06:54:50;7.35;;;3.50;;
69358;SDS011;56520;49.066;8.660;2023-06-22T06:57:17;6.82;;;2.88;;
69358;SDS011;56520;49.066;8.660;2023-06-22T06:59:45;8.60;;;3.47;;
69358;SDS011;56520;49.066;8.660;2023-06-22T07:02:11;7.65;;;3.35;;
69358;SDS011;56520;49.066;8.660;2023-06-22T07:04:36;9.05;;;3.97;;
69358;SDS011;56520;49.066;8.660;2023-06-22T07:07:02;7.25;;;2.88;;
69358;SDS011;56520;49.066;8.660;2023-06-22T07:09:28;9.70;;;3.50;;
69358;SDS011;56520;49.066;8.660;2023-06-22T07:11:53;10.18;;;3.80;;
69358;SDS011;56520;49.066;8.660;2023-06-22T07:14:19;8.48;;;3.28;;
69358;SDS011;56520;49.066;8.660;2023-06-22T07:16:45;8.80;;;3.22;;
69358;SDS011;56520;49.066;8.660;2023-06-22T07:19:13;8.38;;;3.60;;
69358;SDS011;56520;49.066;8.660;2023-06-22T07:21:38;8.20;;;3.25;;
69358;SDS011;56520;49.066;8.660;2023-06-22T07:24:06;6.97;;;2.90;;
69358;SDS011;56520;49.066;8.660;2023-06-22T07:26:32;6.28;;;2.80;;
69358;SDS011;56520;49.066;8.660;2023-06-22T07:28:58;8.48;;;2.75;;
69358;SDS011;56520;49.066;8.660;2023-06-22T07:31:24;6.70;;;2.90;;
69358;SDS011;56520;49.066;8.660;2023-06-22T07:33:50;6.45;;;2.90;;
69358;SDS011;56520;49.066;8.660;2023-06-22T07:36:16;7.32;;;2.92;;
69358;SDS011;56520;49.066;8.660;2023-06-22T07:38:42;7.90;;;2.83;;
69358;SDS011;56520;49.066;8.660;2023-06-22T07:41:08;8.20;;;2.90;;
69358;SDS011;56520;49.066;8.660;2023-06-22T07:43:33;6.63;;;2.75;;
69358;SDS011;56520;49.066;8.660;2023-06-22T07:46:01;9.50;;;3.13;;
69358;SDS011;56520;49.066;8.660;2023-06-22T07:48:29;6.95;;;2.95;;
69358;SDS011;56520;49.066;8.660;2023-06-22T07:50:55;7.53;;;2.88;;
69358;SDS011;56520;49.066;8.660;2023-06-22T07:53:21;6.78;;;2.70;;
69358;SDS011;56520;49.066;8.660;2023-06-22T07:55:47;7.10;;;2.78;;
69358;SDS011;56520;49.066;8.660;2023-06-22T07:58:12;6.35;;;2.80;;
69358;SDS011;56520;49.066;8.660;2023-06-22T08:00:38;8.52;;;2.88;;
69358;SDS011;56520;49.066;8.660;2023-06-22T08:03:03;6.25;;;2.67;;
69358;SDS011;56520;49.066;8.660;2023-06-22T08:05:30;7.03;;;2.80;;
69358;SDS011;56520;49.066;8.660;2023-06-22T08:07:56;6.68;;;2.40;;
69358;SDS011;56520;49.066;8.660;2023-06-22T08:10:21;6.68;;;2.47;;
69358;SDS011;56520;49.066;8.660;2023-06-22T08:12:47;7.57;;;2.50;;
69358;SDS011;56520;49.066;8.660;2023-06-22T08:15:12;5.65;;;2.40;;
69358;SDS011;56520;49.066;8.660;2023-06-22T08:17:38;6.20;;;2.63;;
69358;SDS011;56520;49.066;8.660;2023-06-22T08:20:04;6.55;;;2.65;;
69358;SDS011;56520;49.066;8.660;2023-06-22T08:22:41;6.32;;;2.40;;
69358;SDS011;56520;49.066;8.660;2023-06-22T08:25:07;8.20;;;2.60;;
69358;SDS011;56520;49.066;8.660;2023-06-22T08:27:34;7.03;;;2.72;;
69358;SDS011;56520;49.066;8.660;2023-06-22T08:30:00;6.50;;;2.50;;
69358;SDS011;56520;49.066;8.660;2023-06-22T08:32:29;6.95;;;2.47;;
69358;SDS011;56520;49.066;8.660;2023-06-22T08:34:56;8.98;;;2.60;;
69358;SDS011;56520;49.066;8.660;2023-06-22T08:37:22;6.85;;;2.35;;
69358;SDS011;56520;49.066;8.660;2023-06-22T08:39:56;6.50;;;2.20;;
69358;SDS011;56520;49.066;8.660;2023-06-22T08:42:22;5.80;;;2.20;;
69358;SDS011;56520;49.066;8.660;2023-06-22T08:44:49;6.53;;;2.50;;
69358;SDS011;56520;49.066;8.660;2023-06-22T08:47:14;7.00;;;2.35;;
69358;SDS011;56520;49.066;8.660;2023-06-22T08:49:42;7.95;;;2.47;;
69358;SDS011;56520;49.066;8.660;2023-06-22T08:52:08;7.50;;;2.20;;
69358;SDS011;56520;49.066;8.660;2023-06-22T08:54:33;7.78;;;2.42;;
69358;SDS011;56520;49.066;8.660;2023-06-22T08:57:00;6.57;;;2.40;;
69358;SDS011;56520;49.066;8.660;2023-06-22T08:59:25;6.80;;;2.40;;
69358;SDS011;56520;49.066;8.660;2023-06-22T09:01:51;8.15;;;2.40;;
69358;SDS011;56520;49.066;8.660;2023-06-22T09:04:16;7.45;;;2.50;;
69358;SDS011;56520;49.066;8.660;2023-06-22T09:06:42;7.03;;;2.40;;
69358;SDS011;56520;49.066;8.660;2023-06-22T09:09:12;6.75;;;2.70;;
69358;SDS011;56520;49.066;8.660;2023-06-22T09:11:38;9.02;;;2.65;;
69358;SDS011;56520;49.066;8.660;2023-06-22T09:14:03;7.53;;;2.60;;
69358;SDS011;56520;49.066;8.660;2023-06-22T09:16:29;9.02;;;2.50;;
69358;SDS011;56520;49.066;8.660;2023-06-22T09:18:55;6.55;;;2.47;;
69358;SDS011;56520;49.066;8.660;2023-06-22T09:21:20;6.38;;;2.40;;
69358;SDS011;56520;49.066;8.660;2023-06-22T09:23:46;6.78;;;2.53;;
69358;SDS011;56520;49.066;8.660;2023-06-22T09:26:15;7.82;;;2.50;;
69358;SDS011;56520;49.066;8.660;2023-06-22T09:28:40;7.00;;;2.50;;
69358;SDS011;56520;49.066;8.660;2023-06-22T09:31:06;8.32;;;2.50;;
69358;SDS011;56520;49.066;8.660;2023-06-22T09:33:32;6.53;;;2.38;;
69358;SDS011;56520;49.066;8.660;2023-06-22T09:35:57;7.90;;;2.50;;
69358;SDS011;56520;49.066;8.660;2023-06-22T09:38:23;7.90;;;2.80;;
69358;SDS011;56520;49.066;8.660;2023-06-22T09:40:48;6.15;;;2.50;;
69358;SDS011;56520;49.066;8.660;2023-06-22T09:43:13;7.45;;;2.58;;
69358;SDS011;56520;49.066;8.660;2023-06-22T09:45:39;6.85;;;2.78;;
69358;SDS011;56520;49.066;8.660;2023-06-22T09:48:04;6.22;;;2.60;;
69358;SDS011;56520;49.066;8.660;2023-06-22T09:50:30;6.82;;;2.75;;
69358;SDS011;56520;49.066;8.660;2023-06-22T09:52:55;8.88;;;2.65;;
69358;SDS011;56520;49.066;8.660;2023-06-22T09:55:21;6.93;;;2.60;;
69358;SDS011;56520;49.066;8.660;2023-06-22T09:57:47;7.90;;;2.83;;
69358;SDS011;56520;49.066;8.660;2023-06-22T10:00:13;6.72;;;2.83;;
69358;SDS011;56520;49.066;8.660;2023-06-22T10:02:41;7.72;;;2.70;;
69358;SDS011;56520;49.066;8.660;2023-06-22T10:05:06;8.20;;;2.88;;
69358;SDS011;56520;49.066;8.660;2023-06-22T10:07:32;7.43;;;2.92;;
69358;SDS011;56520;49.066;8.660;2023-06-22T10:09:58;7.35;;;2.60;;
69358;SDS011;56520;49.066;8.660;2023-06-22T10:12:23;7.97;;;2.60;;
69358;SDS011;56520;49.066;8.660;2023-06-22T10:14:49;8.65;;;2.95;;
69358;SDS011;56520;49.066;8.660;2023-06-22T10:17:14;6.63;;;2.63;;
69358;SDS011;56520;49.066;8.660;2023-06-22T10:19:40;7.57;;;2.53;;
69358;SDS011;56520;49.066;8.660;2023-06-22T10:22:07;6.18;;;2.60;;
69358;SDS011;56520;49.066;8.660;2023-06-22T10:24:33;6.30;;;2.35;;
69358;SDS011;56520;49.066;8.660;2023-06-22T10:26:58;6.38;;;2.58;;
69358;SDS011;56520;49.066;8.660;2023-06-22T10:29:24;8.30;;;2.72;;
69358;SDS011;56520;49.066;8.660;2023-06-22T10:31:49;7.10;;;2.97;;
69358;SDS011;56520;49.066;8.660;2023-06-22T10:34:14;6.82;;;3.00;;
69358;SDS011;56520;49.066;8.660;2023-06-22T10:36:40;8.10;;;2.88;;
69358;SDS011;56520;49.066;8.660;2023-06-22T10:39:05;7.20;;;2.72;;
69358;SDS011;56520;49.066;8.660;2023-06-22T10:41:31;7.88;;;2.92;;
69358;SDS011;56520;49.066;8.660;2023-06-22T10:43:56;8.05;;;2.90;;
69358;SDS011;56520;49.066;8.660;2023-06-22T10:46:23;7.63;;;2.88;;
69358;SDS011;56520;49.066;8.660;2023-06-22T10:48:50;6.47;;;2.42;;
69358;SDS011;56520;49.066;8.660;2023-06-22T10:51:16;7.97;;;2.70;;
69358;SDS011;56520;49.066;8.660;2023-06-22T10:53:41;8.15;;;2.90;;
69358;SDS011;56520;49.066;8.660;2023-06-22T10:56:08;9.75;;;2.63;;
69358;SDS011;56520;49.066;8.660;2023-06-22T10:58:33;7.25;;;2.78;;
69358;SDS011;56520;49.066;8.660;2023-06-22T11:00:58;6.47;;;2.50;;
69358;SDS011;56520;49.066;8.660;2023-06-22T11:03:24;7.95;;;2.88;;
69358;SDS011;56520;49.066;8.660;2023-06-22T11:05:49;8.15;;;2.65;;
69358;SDS011;56520;49.066;8.660;2023-06-22T11:08:15;8.52;;;2.60;;
69358;SDS011;56520;49.066;8.660;2023-06-22T11:10:40;7.72;;;2.78;;
69358;SDS011;56520;49.066;8.660;2023-06-22T11:13:05;6.95;;;2.60;;
69358;SDS011;56520;49.066;8.660;2023-06-22T11:15:34;6.68;;;2.75;;
69358;SDS011;56520;49.066;8.660;2023-06-22T11:18:00;7.60;;;2.88;;
69358;SDS011;56520;49.066;8.660;2023-06-22T11:20:25;8.27;;;2.78;;
69358;SDS011;56520;49.066;8.660;2023-06-22T11:22:50;9.45;;;2.95;;
69358;SDS011;56520;49.066;8.660;2023-06-22T11:25:16;7.28;;;2.90;;
69358;SDS011;56520;49.066;8.660;2023-06-22T11:27:41;8.25;;;2.85;;
69358;SDS011;56520;49.066;8.660;2023-06-22T11:30:08;8.20;;;2.95;;
69358;SDS011;56520;49.066;8.660;2023-06-22T11:32:34;6.97;;;2.80;;
69358;SDS011;56520;49.066;8.660;2023-06-22T11:34:59;7.05;;;2.80;;
69358;SDS011;56520;49.066;8.660;2023-06-22T11:37:25;7.93;;;2.80;;
69358;SDS011;56520;49.066;8.660;2023-06-22T11:39:50;6.90;;;2.90;;
69358;SDS011;56520;49.066;8.660;2023-06-22T11:42:16;9.63;;;2.88;;
69358;SDS011;56520;49.066;8.660;2023-06-22T11:44:42;9.27;;;2.72;;
69358;SDS011;56520;49.066;8.660;2023-06-22T11:47:08;7.65;;;2.92;;
69358;SDS011;56520;49.066;8.660;2023-06-22T11:49:34;9.02;;;2.97;;
69358;SDS011;56520;49.066;8.660;2023-06-22T11:52:06;8.75;;;3.08;;
69358;SDS011;56520;49.066;8.660;2023-06-22T11:54:31;7.45;;;2.88;;
69358;SDS011;56520;49.066;8.660;2023-06-22T11:56:56;7.85;;;2.95;;
69358;SDS011;56520;49.066;8.660;2023-06-22T11:59:22;7.43;;;3.10;;
69358;SDS011;56520;49.066;8.660;2023-06-22T12:01:47;7.40;;;2.85;;
69358;SDS011;56520;49.066;8.660;2023-06-22T12:04:14;8.32;;;3.20;;
69358;SDS011;56520;49.066;8.660;2023-06-22T12:06:39;6.93;;;2.90;;
69358;SDS011;56520;49.066;8.660;2023-06-22T12:09:07;8.38;;;2.83;;
69358;SDS011;56520;49.066;8.660;2023-06-22T12:11:32;6.97;;;2.92;;
69358;SDS011;56520;49.066;8.660;2023-06-22T12:13:58;7.50;;;3.10;;
69358;SDS011;56520;49.066;8.660;2023-06-22T12:16:26;7.72;;;2.85;;
69358;SDS011;56520;49.066;8.660;2023-06-22T12:18:52;8.10;;;3.08;;
69358;SDS011;56520;49.066;8.660;2023-06-22T12:21:18;6.78;;;2.83;;
69358;SDS011;56520;49.066;8.660;2023-06-22T12:23:44;6.47;;;2.65;;
69358;SDS011;56520;49.066;8.660;2023-06-22T12:26:09;6.45;;;2.83;;
69358;SDS011;56520;49.066;8.660;2023-06-22T12:28:34;6.30;;;2.78;;
69358;SDS011;56520;49.066;8.660;2023-06-22T12:31:00;6.70;;;2.80;;
69358;SDS011;56520;49.066;8.660;2023-06-22T12:33:25;6.60;;;2.90;;
69358;SDS011;56520;49.066;8.660;2023-06-22T12:35:51;7.03;;;2.75;;
69358;SDS011;56520;49.066;8.660;2023-06-22T12:38:16;8.23;;;2.97;;
69358;SDS011;56520;49.066;8.660;2023-06-22T12:40:41;8.68;;;3.25;;
69358;SDS011;56520;49.066;8.660;2023-06-22T12:43:07;9.77;;;3.05;;
69358;SDS011;56520;49.066;8.660;2023-06-22T12:45:32;8.70;;;2.60;;
69358;SDS011;56520;49.066;8.660;2023-06-22T12:47:58;8.77;;;3.00;;
69358;SDS011;56520;49.066;8.660;2023-06-22T12:50:24;7.40;;;3.20;;
69358;SDS011;56520;49.066;8.660;2023-06-22T12:52:50;6.72;;;2.97;;
69358;SDS011;56520;49.066;8.660;2023-06-22T12:55:15;8.77;;;3.08;;
69358;SDS011;56520;49.066;8.660;2023-06-22T12:57:41;7.85;;;2.72;;
69358;SDS011;56520;49.066;8.660;2023-06-22T13:00:06;8.63;;;3.00;;
69358;SDS011;56520;49.066;8.660;2023-06-22T13:02:34;6.93;;;2.85;;
69358;SDS011;56520;49.066;8.660;2023-06-22T13:05:01;9.50;;;3.40;;
69358;SDS011;56520;49.066;8.660;2023-06-22T13:07:26;8.35;;;2.80;;
69358;SDS011;56520;49.066;8.660;2023-06-22T13:09:52;7.55;;;3.10;;
69358;SDS011;56520;49.066;8.660;2023-06-22T13:12:17;7.30;;;3.13;;
69358;SDS011;56520;49.066;8.660;2023-06-22T13:14:43;9.15;;;3.00;;
69358;SDS011;56520;49.066;8.660;2023-06-22T13:17:08;11.60;;;2.88;;
69358;SDS011;56520;49.066;8.660;2023-06-22T13:19:34;9.13;;;2.80;;
69358;SDS011;56520;49.066;8.660;2023-06-22T13:21:59;9.07;;;2.80;;
69358;SDS011;56520;49.066;8.660;2023-06-22T13:24:25;8.43;;;3.03;;
69358;SDS011;56520;49.066;8.660;2023-06-22T13:26:50;8.95;;;3.28;;
69358;SDS011;56520;49.066;8.660;2023-06-22T13:29:16;8.85;;;3.25;;
69358;SDS011;56520;49.066;8.660;2023-06-22T13:31:41;9.00;;;2.97;;
69358;SDS011;56520;49.066;8.660;2023-06-22T13:34:07;7.78;;;3.25;;
69358;SDS011;56520;49.066;8.660;2023-06-22T13:36:32;8.40;;;2.90;;
69358;SDS011;56520;49.066;8.660;2023-06-22T13:38:58;8.07;;;3.25;;
69358;SDS011;56520;49.066;8.660;2023-06-22T13:41:23;6.60;;;2.97;;
69358;SDS011;56520;49.066;8.660;2023-06-22T13:43:48;8.10;;;3.20;;
69358;SDS011;56520;49.066;8.660;2023-06-22T13:46:14;8.82;;;3.17;;
69358;SDS011;56520;49.066;8.660;2023-06-22T13:48:39;8.50;;;3.00;;
69358;SDS011;56520;49.066;8.660;2023-06-22T13:51:05;7.53;;;3.25;;
69358;SDS011;56520;49.066;8.660;2023-06-22T13:53:30;12.40;;;2.92;;
69358;SDS011;56520;49.066;8.660;2023-06-22T13:55:56;7.65;;;3.05;;
69358;SDS011;56520;49.066;8.660;2023-06-22T13:58:21;7.20;;;2.85;;
69358;SDS011;56520;49.066;8.660;2023-06-22T14:00:47;10.07;;;3.13;;
69358;SDS011;56520;49.066;8.660;2023-06-22T14:03:14;8.70;;;3.10;;
69358;SDS011;56520;49.066;8.660;2023-06-22T14:05:41;9.25;;;3.25;;
69358;SDS011;56520;49.066;8.660;2023-06-22T14:08:07;8.32;;;3.20;;
69358;SDS011;56520;49.066;8.660;2023-06-22T14:10:32;8.15;;;3.13;;
69358;SDS011;56520;49.066;8.660;2023-06-22T14:12:58;8.38;;;3.13;;
69358;SDS011;56520;49.066;8.660;2023-06-22T14:15:25;10.05;;;3.20;;
69358;SDS011;56520;49.066;8.660;2023-06-22T14:17:51;6.38;;;2.75;;
69358;SDS011;56520;49.066;8.660;2023-06-22T14:20:17;8.25;;;3.05;;
69358;SDS011;56520;49.066;8.660;2023-06-22T14:22:43;8.73;;;3.45;;
69358;SDS011;56520;49.066;8.660;2023-06-22T14:25:08;8.07;;;2.92;;
69358;SDS011;56520;49.066;8.660;2023-06-22T14:27:34;7.60;;;3.10;;
69358;SDS011;56520;49.066;8.660;2023-06-22T14:29:59;7.55;;;3.13;;
69358;SDS011;56520;49.066;8.660;2023-06-22T14:32:24;10.90;;;3.28;;
69358;SDS011;56520;49.066;8.660;2023-06-22T14:34:50;8.70;;;3.50;;
69358;SDS011;56520;49.066;8.660;2023-06-22T14:37:15;6.72;;;3.03;;
69358;SDS011;56520;49.066;8.660;2023-06-22T14:39:41;8.90;;;3.33;;
69358;SDS011;56520;49.066;8.660;2023-06-22T14:42:09;7.88;;;3.20;;
69358;SDS011;56520;49.066;8.660;2023-06-22T14:44:35;7.82;;;3.20;;
69358;SDS011;56520;49.066;8.660;2023-06-22T14:47:00;9.10;;;3.13;;
69358;SDS011;56520;49.066;8.660;2023-06-22T14:49:26;9.07;;;2.92;;
69358;SDS011;56520;49.066;8.660;2023-06-22T14:51:51;8.32;;;3.20;;
69358;SDS011;56520;49.066;8.660;2023-06-22T14:54:17;9.68;;;3.20;;